Data for 07/23/2005

Time Sea-Level Adjusted Pressure Absolute Pressure Temperature Relative Humidity Dew Point   
(mb) (inHg) (mb) (inHg) (C) (F) (%) (C) (F)
00:05 1017 30.03 846 24.98 22.1 71.8 52 11.9 53.5
00:10 1017 30.03 846 24.98 21.7 71 56 12.7 54.9
00:15 1017 30.03 846 24.98 21.2 70.1 59 12.9 55.2
00:20 1017 30.03 846 24.98 20.8 69.4 59 12.7 54.8
00:25 1017 30.03 846 24.98 21.1 70.1 54 11.6 52.8
00:30 1017 30.03 846 24.98 21.6 70.8 54 12.1 53.7
00:35 1017 30.03 846 24.98 21.6 71 55 12.3 54.2
00:40 1017 30.03 846 24.98 21.6 71 52 11.5 52.8
00:45 1017 30.03 846 24.98 21.6 70.9 54 12 53.6
00:50 1017 30.03 846 24.98 21.4 70.5 54 12 53.5
00:55 1017 30.03 846 24.98 21.3 70.3 55 11.9 53.5
01:00 1017 30.03 846 24.98 21.4 70.5 53 11.5 52.6
01:05 1017 30.03 846 24.98 21.7 71 53 11.8 53.2
01:10 1017 30.03 846 24.98 21.3 70.3 56 12.3 54.2
01:15 1017 30.03 846 24.98 20.9 69.6 56 12 53.7
01:20 1017 30.03 846 24.98 20.7 69.2 57 12.1 53.7
01:25 1017 30.03 846 24.98 20.5 68.9 59 12.3 54.1
01:30 1017 30.03 847 25.01 20.6 69.1 55 11.4 52.5
01:35 1018 30.06 847 25.01 21.2 70.1 54 11.6 52.9
01:40 1017 30.03 847 25.01 21.1 70 58 12.7 54.8
01:45 1018 30.06 847 25.01 20.6 69.1 59 12.4 54.4
01:50 1018 30.06 847 25.01 20.4 68.7 62 13 55.4
01:55 1018 30.06 847 25.01 20.1 68.2 63 12.9 55.2
02:00 1018 30.06 847 25.01 20 67.9 63 12.8 55
02:05 1018 30.06 847 25.01 19.8 67.7 64 12.9 55.2
02:10 1018 30.06 847 25.01 20 67.9 61 12.2 54
02:15 1018 30.06 847 25.01 20.2 68.4 61 12.7 54.8
02:20 1018 30.06 847 25.01 20.1 68.2 65 13.3 56
02:25 1018 30.06 847 25.01 19.3 66.8 69 13.6 56.5
02:30 1018 30.06 847 25.01 18.9 66 68 12.9 55.2
02:35 1018 30.06 847 25.01 19.1 66.3 67 12.9 55.2
02:40 1018 30.06 847 25.01 19 66.2 66 12.6 54.7
02:45 1018 30.06 847 25.01 19.4 66.8 63 12.2 53.9
02:50 1018 30.06 847 25.01 19.7 67.4 62 12.2 54
02:55 1018 30.06 847 25.01 19.7 67.4 64 12.7 54.8
03:00 1018 30.06 848 25.04 19.4 67 65 12.7 54.9
03:05 1018 30.06 848 25.04 19.2 66.6 64 12.2 54
03:10 1018 30.06 848 25.04 19.3 66.8 63 12.2 53.9
03:15 1018 30.06 848 25.04 19.4 66.9 64 12.5 54.6
03:20 1019 30.09 848 25.04 19.4 66.8 61 11.8 53.2
03:25 1019 30.09 848 25.04 19.5 67.1 63 12.5 54.4
03:30 1019 30.09 848 25.04 19.4 67 61 11.9 53.4
03:35 1019 30.09 848 25.04 19.7 67.4 62 12.4 54.2
03:40 1019 30.09 848 25.04 19.2 66.5 67 13.1 55.5
03:45 1019 30.09 848 25.04 18.7 65.6 71 13.4 56.2
03:50 1019 30.09 848 25.04 18.3 64.9 68 12.3 54.2
03:55 1019 30.09 848 25.04 18.2 64.8 67 12.1 53.8
04:00 1019 30.09 848 25.04 18.5 65.3 66 12.2 53.9
04:05 1019 30.09 849 25.07 18.5 65.3 67 12.4 54.4
04:10 1019 30.09 849 25.07 18.2 64.7 68 12.4 54.2
04:15 1019 30.09 849 25.07 17.9 64.3 70 12.4 54.4
04:20 1019 30.09 848 25.04 17.7 63.8 71 12.4 54.3
04:25 1019 30.09 848 25.04 17.9 64.2 71 12.6 54.6
04:30 1019 30.09 848 25.04 18.1 64.5 70 12.6 54.7
04:35 1019 30.09 848 25.04 18.2 64.7 70 12.7 54.8
04:40 1019 30.09 848 25.04 18.3 64.9 70 12.8 55.1
04:45 1019 30.09 848 25.04 18.2 64.7 71 12.8 55.1
04:50 1019 30.09 849 25.07 18.1 64.5 72 13 55.4
04:55 1019 30.09 849 25.07 17.5 63.5 75 13.1 55.6
05:00 1019 30.09 849 25.07 17.1 62.8 76 12.8 55.1
05:05 1019 30.09 849 25.07 17.3 63.1 74 12.7 54.8
05:10 1019 30.09 849 25.07 17.6 63.6 72 12.5 54.5
05:15 1020 30.12 849 25.07 18 64.3 71 12.7 54.8
05:20 1020 30.12 849 25.07 18.1 64.5 71 12.7 54.9
05:25 1020 30.12 849 25.07 18.1 64.5 70 12.7 54.8
05:30 1020 30.12 849 25.07 18.2 64.7 68 12.3 54.2
05:35 1020 30.12 849 25.07 18.6 65.4 68 12.6 54.7
05:40 1020 30.12 849 25.07 18.6 65.4 68 12.7 54.8
05:45 1020 30.12 849 25.07 18.4 65.2 68 12.6 54.6
05:50 1020 30.12 849 25.07 18.3 64.9 69 12.6 54.7
05:55 1020 30.12 849 25.07 18 64.4 71 12.6 54.8
06:00 1020 30.12 849 25.07 17.5 63.5 73 12.6 54.7
06:05 1020 30.12 849 25.07 17.1 62.8 73 12.3 54.2
06:10 1020 30.12 849 25.07 17 62.6 74 12.5 54.4
06:15 1020 30.12 849 25.07 16.9 62.3 74 12.3 54.1
06:20 1020 30.12 849 25.07 16.8 62.3 75 12.4 54.3
06:25 1020 30.12 849 25.07 16.9 62.4 74 12.3 54.2
06:30 1020 30.12 849 25.07 17 62.6 73 12.2 54
06:35 1020 30.12 849 25.07 17.4 63.4 71 12.2 53.9
06:40 1020 30.12 849 25.07 17.6 63.7 72 12.5 54.5
06:45 1020 30.12 849 25.07 17.2 62.9 73 12.3 54.2
06:50 1020 30.12 849 25.07 17.3 63.1 74 12.6 54.7
06:55 1020 30.12 849 25.07 16.9 62.5 75 12.6 54.6
07:00 1020 30.12 850 25.1 16.8 62.2 75 12.4 54.4
07:05 1020 30.12 850 25.1 17.1 62.9 74 12.5 54.5
07:10 1020 30.12 850 25.1 17.5 63.6 72 12.5 54.6
07:15 1021 30.15 850 25.1 18.1 64.6 69 12.5 54.5
07:20 1021 30.15 850 25.1 18.6 65.6 69 12.9 55.2
07:25 1021 30.15 850 25.1 18.8 65.8 67 12.6 54.6
07:30 1021 30.15 850 25.1 19 66.2 66 12.6 54.7
07:35 1021 30.15 850 25.1 19.7 67.4 64 12.7 54.9
07:40 1021 30.15 850 25.1 20 68 65 13.3 56
07:45 1021 30.15 850 25.1 19.8 67.6 66 13.3 55.9
07:50 1021 30.15 850 25.1 19.9 67.8 64 12.9 55.3
07:55 1021 30.15 850 25.1 20.4 68.8 61 12.7 54.9
08:00 1021 30.15 850 25.1 20.9 69.6 61 13.1 55.6
08:05 1021 30.15 850 25.1 21 69.7 60 13.2 55.7
08:10 1021 30.15 850 25.1 21.3 70.3 55 12.1 53.7
08:15 1021 30.15 850 25.1 21.1 70 53 11.2 52.1
08:20 1021 30.15 850 25.1 21.2 70.1 53 11.3 52.3
08:25 1021 30.15 850 25.1 21.2 70.2 53 11.4 52.5
08:30 1021 30.15 850 25.1 21.2 70.2 52 11.2 52.1
08:35 1021 30.15 850 25.1 21.6 70.8 50 10.7 51.3
08:40 1021 30.15 851 25.13 21.8 71.2 50 11.1 52
08:45 1021 30.15 851 25.13 21.8 71.2 50 11 51.9
08:50 1021 30.15 851 25.13 21.8 71.2 50 11.2 52.1
08:55 1021 30.15 851 25.13 22 71.7 49 11.1 52
09:00 1021 30.15 851 25.13 22.2 72 49 11.3 52.3
09:05 1022 30.18 851 25.13 22.3 72.2 51 11.8 53.2
09:10 1022 30.18 851 25.13 22.2 72 51 11.8 53.3
09:15 1022 30.18 851 25.13 22.5 72.4 50 11.7 53.1
09:20 1021 30.15 851 25.13 22.8 73 49 11.7 53.1
09:25 1022 30.18 851 25.13 23.2 73.8 48 11.8 53.3
09:30 1022 30.18 851 25.13 23.3 73.9 48 11.9 53.5
09:35 1022 30.18 851 25.13 23.1 73.7 49 12.1 53.8
09:40 1022 30.18 851 25.13 22.7 72.9 48 11.2 52.2
09:45 1022 30.18 851 25.13 22.8 73.1 48 11.6 52.8
09:50 1022 30.18 851 25.13 22.8 73.1 49 11.9 53.4
09:55 1021 30.15 851 25.13 23.2 73.7 46 11.2 52.1
10:00 1021 30.15 851 25.13 23.5 74.3 45 11 51.8
10:05 1021 30.15 851 25.13 23.8 74.9 45 11.4 52.5
10:10 1021 30.15 851 25.13 23.9 75.1 45 11.4 52.6
10:15 1021 30.15 851 25.13 23.4 74.1 47 11.5 52.8
10:20 1021 30.15 851 25.13 23.3 74 45 11.1 52
10:25 1022 30.18 851 25.13 23.7 74.7 45 11.2 52.1
10:30 1022 30.18 851 25.13 24 75.2 44 11.1 51.9
10:35 1021 30.15 851 25.13 24.4 76 42 11 51.9
10:40 1022 30.18 851 25.13 24.5 76.1 42 11 51.8
10:45 1021 30.15 851 25.13 24.5 76.1 43 11.1 52
10:50 1021 30.15 851 25.13 24.6 76.2 42 11.1 52
10:55 1021 30.15 851 25.13 24.6 76.2 41 10.8 51.4
11:00 1021 30.15 851 25.13 24.7 76.5 41 10.8 51.4
11:05 1021 30.15 851 25.13 24.8 76.7 40 10.6 51.1
11:10 1021 30.15 851 25.13 24.8 76.6 42 11.2 52.1
11:15 1021 30.15 851 25.13 25 77 40 10.8 51.4
11:20 1021 30.15 851 25.13 24.9 76.8 43 11.6 52.9
11:25 1021 30.15 851 25.13 24.8 76.7 42 11.2 52.1
11:30 1021 30.15 851 25.13 25.3 77.5 41 11.1 52
11:35 1021 30.15 851 25.13 25.2 77.4 41 11.2 52.2
11:40 1021 30.15 850 25.1 25.5 77.9 40 11.3 52.3
11:45 1021 30.15 850 25.1 26 78.8 39 11.3 52.4
11:50 1021 30.15 850 25.1 25.8 78.5 39 11 51.9
11:55 1021 30.15 850 25.1 26.1 78.9 38 10.9 51.7
12:00 1021 30.15 850 25.1 26.5 79.7 38 11.2 52.1
12:05 1021 30.15 850 25.1 26.1 79 39 11.1 52.1
12:10 1021 30.15 850 25.1 25.9 78.5 40 11.4 52.5
12:15 1021 30.15 850 25.1 26.4 79.4 38 10.9 51.7
12:20 1021 30.15 850 25.1 26.4 79.6 37 11 51.8
12:25 1021 30.15 850 25.1 26 78.7 39 11.1 51.9
12:30 1021 30.15 850 25.1 26.4 79.4 37 10.8 51.4
12:35 1021 30.15 850 25.1 26.6 79.9 35 10.2 50.3
12:40 1021 30.15 850 25.1 27.1 80.9 35 10.5 50.9
12:45 1021 30.15 850 25.1 26.6 80 35 10.3 50.6
12:50 1021 30.15 850 25.1 27.5 81.4 34 10.7 51.2
12:55 1021 30.15 850 25.1 27.7 81.9 34 10.7 51.3
13:00 1021 30.15 850 25.1 27.8 82 34 10.8 51.4
13:05 1021 30.15 850 25.1 28.3 83 32 10.4 50.7
13:10 1021 30.15 850 25.1 28 82.3 34 10.8 51.5
13:15 1021 30.15 850 25.1 27.2 81 34 10.4 50.6
13:20 1020 30.12 850 25.1 27.2 81 34 10.3 50.5
13:25 1020 30.12 850 25.1 27.9 82.2 32 9.7 49.5
13:30 1020 30.12 850 25.1 28.1 82.6 31 9.8 49.6
13:35 1020 30.12 850 25.1 28.6 83.4 31 10 50
13:40 1020 30.12 850 25.1 28.1 82.5 32 10 50.1
13:45 1020 30.12 850 25.1 28.3 83 31 9.9 49.8
13:50 1020 30.12 850 25.1 28.3 83 31 9.9 49.8
13:55 1020 30.12 849 25.07 28.4 83.1 31 9.8 49.6
14:00 1020 30.12 849 25.07 29 84.2 29 9.4 49
14:05 1020 30.12 849 25.07 29.1 84.4 30 10.2 50.3
14:10 1020 30.12 849 25.07 29 84.2 30 9.9 49.7
14:15 1020 30.12 849 25.07 29 84.1 30 9.9 49.9
14:20 1020 30.12 849 25.07 28.6 83.5 29 9.2 48.6
14:25 1020 30.12 849 25.07 29.2 84.5 27 8.8 47.8
14:30 1020 30.12 849 25.07 29.6 85.2 28 9.4 48.9
14:35 1020 30.12 849 25.07 30 86 26 8.9 48
14:40 1020 30.12 849 25.07 30.3 86.5 26 9.1 48.3
14:45 1020 30.12 849 25.07 30 86 26 8.8 47.9
14:50 1020 30.12 849 25.07 29.7 85.5 26 8.4 47.1
14:55 1020 30.12 849 25.07 29.4 84.9 26 8.4 47.1
15:00 1020 30.12 849 25.07 29.7 85.5 25 8 46.4
15:05 1020 30.12 849 25.07 29.6 85.3 26 8.2 46.8
15:10 1020 30.12 849 25.07 29.8 85.7 24 7.7 45.9
15:15 1020 30.12 849 25.07 29.8 85.6 24 7.4 45.3
15:20 1020 30.12 849 25.07 29.6 85.2 25 7.9 46.2
15:25 1020 30.12 849 25.07 29.7 85.4 25 7.9 46.3
15:30 1020 30.12 849 25.07 30.1 86.2 23 7.1 44.7
15:35 1020 30.12 849 25.07 30.7 87.2 22 7 44.7
15:40 1020 30.12 849 25.07 30.5 86.9 24 7.8 46
15:45 1020 30.12 849 25.07 30.4 86.6 23 7 44.5
15:50 1019 30.09 849 25.07 30.8 87.5 22 7.2 45
15:55 1019 30.09 849 25.07 30.2 86.3 22 6.8 44.2
16:00 1019 30.09 849 25.07 30.3 86.5 22 6.5 43.7
16:05 1019 30.09 849 25.07 30.6 87 21 6 42.8
16:10 1019 30.09 849 25.07 30.1 86.1 21 6 42.8
16:15 1019 30.09 849 25.07 30.7 87.3 20 5.8 42.5
16:20 1019 30.09 848 25.04 30.6 87.2 21 6.1 43
16:25 1019 30.09 848 25.04 30.5 86.9 22 6.7 44
16:30 1019 30.09 848 25.04 30.7 87.3 22 6.7 44
16:35 1019 30.09 848 25.04 30.5 87 22 6.5 43.7
16:40 1019 30.09 848 25.04 30.1 86.2 23 7 44.5
16:45 1019 30.09 848 25.04 29.6 85.2 22 6 42.8
16:50 1019 30.09 848 25.04 29.6 85.3 22 6 42.8
16:55 1019 30.09 848 25.04 30.3 86.5 20 5.5 41.9
17:00 1019 30.09 848 25.04 29.9 85.8 22 6.3 43.3
17:05 1019 30.09 848 25.04 29.8 85.7 22 6.1 42.9
17:10 1019 30.09 848 25.04 30 86 21 5.6 42.1
17:15 1019 30.09 848 25.04 30.2 86.3 21 5.9 42.7
17:20 1019 30.09 848 25.04 30.1 86.1 21 5.7 42.3
17:25 1019 30.09 848 25.04 29.9 85.8 20 5.1 41.3
17:30 1019 30.09 848 25.04 29.8 85.7 21 5.4 41.7
17:35 1019 30.09 848 25.04 30.1 86.1 22 6.2 43.2
17:40 1019 30.09 848 25.04 30.1 86.2 21 5.5 41.9
17:45 1019 30.09 848 25.04 30 86.1 21 5.5 41.9
17:50 1019 30.09 848 25.04 30 85.9 20 4.9 40.8
17:55 1019 30.09 848 25.04 29.3 84.8 20 4.7 40.4
18:00 1019 30.09 848 25.04 29.5 85.1 20 4.3 39.7
18:05 1019 30.09 848 25.04 29.7 85.5 19 4.1 39.3
18:10 1019 30.09 848 25.04 29.8 85.6 19 4 39.2
18:15 1019 30.09 848 25.04 29.7 85.4 19 3.7 38.7
18:20 1019 30.09 848 25.04 29.4 84.9 18 3 37.3
18:25 1019 30.09 848 25.04 29.2 84.6 18 3 37.4
18:30 1019 30.09 848 25.04 29.1 84.5 18 3 37.4
18:35 1019 30.09 848 25.04 29.2 84.5 18 2.8 37
18:40 1019 30.09 848 25.04 29.2 84.6 18 2.9 37.2
18:45 1019 30.09 848 25.04 29.4 85 18 3.3 38
18:50 1019 30.09 848 25.04 29.4 84.8 18 2.7 36.9
18:55 1019 30.09 848 25.04 29.2 84.5 18 2.7 36.9
19:00 1019 30.09 848 25.04 29.2 84.5 16 1.4 34.4
19:05 1019 30.09 848 25.04 28.9 84.1 18 2.6 36.7
19:10 1019 30.09 848 25.04 28.9 84 18 2.7 36.8
19:15 1019 30.09 848 25.04 28.8 83.8 18 2.3 36.1
19:20 1019 30.09 848 25.04 28.3 83 20 3.4 38.1
19:25 1019 30.09 848 25.04 28.3 83 20 3.5 38.3
19:30 1019 30.09 848 25.04 28.2 82.7 19 2.8 37
19:35 1019 30.09 848 25.04 28.2 82.7 20 3.2 37.7
19:40 1019 30.09 848 25.04 28.1 82.6 19 2.9 37.2
19:45 1019 30.09 848 25.04 27.9 82.3 20 3 37.4
19:50 1019 30.09 848 25.04 27.9 82.1 20 3.1 37.6
19:55 1019 30.09 848 25.04 27.7 81.9 20 3.1 37.6
20:00 1019 30.09 848 25.04 28 82.3 20 3.2 37.7
20:05 1019 30.09 848 25.04 28.2 82.7 20 3.1 37.6
20:10 1019 30.09 848 25.04 27.9 82.2 20 3.2 37.8
20:15 1019 30.09 848 25.04 27.4 81.2 21 3.4 38.1
20:20 1019 30.09 848 25.04 27 80.5 21 3.2 37.7
20:25 1019 30.09 848 25.04 26.7 80.1 22 3.2 37.8
20:30 1019 30.09 848 25.04 26.5 79.8 22 3.3 38
20:35 1019 30.09 848 25.04 26.4 79.6 23 4 39.2
20:40 1019 30.09 849 25.07 26.2 79.2 25 4.6 40.3
20:45 1019 30.09 849 25.07 26 78.8 24 4 39.2
20:50 1019 30.09 849 25.07 25.8 78.4 24 4.1 39.4
20:55 1020 30.12 849 25.07 25.6 78.1 25 4.2 39.5
21:00 1020 30.12 849 25.07 25.3 77.6 25 3.9 39
21:05 1020 30.12 849 25.07 25.1 77.2 25 4 39.3
21:10 1020 30.12 849 25.07 24.7 76.5 28 5.2 41.4
21:15 1020 30.12 849 25.07 24.4 76 27 4.7 40.4
21:20 1020 30.12 849 25.07 24.1 75.3 28 4.4 40
21:25 1020 30.12 849 25.07 23.7 74.7 27 3.7 38.7
21:30 1020 30.12 849 25.07 23.5 74.2 27 3.8 38.8
21:35 1020 30.12 849 25.07 23.3 73.9 27 3.4 38.1
21:40 1020 30.12 850 25.1 23.1 73.5 31 5.3 41.5
21:45 1020 30.12 850 25.1 22.4 72.4 33 5.5 41.9
21:50 1021 30.15 850 25.1 21.9 71.4 34 5.3 41.6
21:55 1021 30.15 850 25.1 21.5 70.6 38 6.8 44.3
22:00 1021 30.15 850 25.1 21.2 70.1 36 5.6 42.1
22:05 1021 30.15 850 25.1 21 69.7 40 7.1 44.9
22:10 1021 30.15 850 25.1 20.6 69.1 45 8.5 47.4
22:15 1021 30.15 850 25.1 20.3 68.5 37 5.4 41.6
22:20 1021 30.15 850 25.1 20.8 69.4 35 5.1 41.2
22:25 1021 30.15 850 25.1 20.9 69.6 39 6.6 43.8
22:30 1021 30.15 850 25.1 20.7 69.3 37 5.9 42.5
22:35 1021 30.15 850 25.1 20.5 68.9 34 4.3 39.7
22:40 1021 30.15 850 25.1 20.5 69 36 5.1 41.2
22:45 1021 30.15 850 25.1 19.8 67.6 46 8.1 46.5
22:50 1021 30.15 850 25.1 19.2 66.6 42 6 42.8
22:55 1021 30.15 850 25.1 18.8 65.9 42 5.8 42.5
23:00 1021 30.15 850 25.1 18.9 65.9 44 6.5 43.7
23:05 1021 30.15 850 25.1 18.1 64.5 48 7.1 44.8
23:10 1021 30.15 850 25.1 17.9 64.1 48 7 44.5
23:15 1021 30.15 850 25.1 18.2 64.7 42 5.1 41.1
23:20 1021 30.15 851 25.13 18.5 65.2 43 5.8 42.4
23:25 1021 30.15 851 25.13 18.3 64.9 44 5.8 42.5
23:30 1021 30.15 851 25.13 18.2 64.8 44 5.9 42.6
23:35 1021 30.15 851 25.13 18.1 64.7 44 6 42.7
23:40 1021 30.15 851 25.13 18.1 64.6 46 6.3 43.4
23:45 1021 30.15 851 25.13 18 64.3 46 6.2 43.2
23:50 1021 30.15 851 25.13 17.9 64.3 47 6.5 43.7
23:55 1022 30.18 851 25.13 18 64.3 45 6.1 43
24:00 1022 30.18 851 25.13 17.7 63.9 46 6.2 43.1